Flight Track Log - Related Links

Times and Time Zones

All times are in EDT time to prevent confusion due to time zone crossing. See the N929SR flight status page for this flight to view local times or setup timezone preferences in your user account.

Time Position Orientation Groundspeed Altitude Reporting Facility
EDT Latitude Longitude Course Direction KTS MPH feet Rate Location/Type
Fri 07:00:17 PM 33.6000 -111.9333 292° West 187 215 2,200  Level Phoenix TRACON
Fri 07:01:11 PM 33.6167 -111.9833 292° West 189 217 4,100 2,571 Climbing Phoenix TRACON
Fri 07:02:23 PM 33.6089 -112.0592 263° West 217 250 7,600 3,269 Climbing Albuquerque Center
Fri 07:03:25 PM 33.5633 -112.1286 232° Southwest 264 304 11,400 3,610 Climbing Albuquerque Center
Fri 07:04:26 PM 33.5125 -112.2047 231° Southwest 291 335 15,000 3,024 Climbing Albuquerque Center
Fri 07:05:28 PM 33.4569 -112.2894 232° Southwest 319 367 17,600 2,516 Climbing Albuquerque Center
Fri 07:06:30 PM 33.4333 -112.3969 255° West 353 406 20,200 2,732 Climbing Albuquerque Center
Fri 07:07:31 PM 33.4400 -112.5131 274° West 350 403 23,200 2,293 Climbing Albuquerque Center
Fri 07:08:33 PM 33.4456 -112.6381 273° West 356 410 24,900 1,951 Climbing Albuquerque Center
Fri 07:09:34 PM 33.4533 -112.8019 273° West 403 464 27,200 2,537 Climbing Albuquerque Center
Fri 07:10:36 PM 33.4922 -112.9319 290° West 419 482 30,100 2,341 Climbing Albuquerque Center
Fri 07:11:37 PM 33.5381 -113.0558 294° West 412 474 32,000 927 Climbing Albuquerque Center
Fri 07:12:39 PM 33.5842 -113.1892 293° West 427 491 32,000  Level Albuquerque Center
Fri 07:13:41 PM 33.6306 -113.3211 293° West 437 503 32,000  Level Albuquerque Center
Fri 07:14:42 PM 33.6792 -113.4581 293° West 443 510 32,000  Level Albuquerque Center
Fri 07:15:44 PM 33.7275 -113.5950 293° West 444 511 32,000  Level Albuquerque Center
Fri 07:16:45 PM 33.7844 -113.7603 293° West 446 513 32,000  Level Albuquerque Center
Fri 07:17:47 PM 33.8322 -113.8967 293° West 445 512 32,000 -49 Level Albuquerque Center
Fri 07:18:48 PM 33.8761 -114.0306 292° West 440 506 31,900  Descending Albuquerque Center
Fri 07:19:50 PM 33.9194 -114.1583 292° West 427 491 32,000 49 Climbing Albuquerque Center
Fri 07:20:51 PM 33.9667 -114.2839 294° West 417 480 32,000 -49 Level Albuquerque Center
Fri 07:21:53 PM 34.0108 -114.4092 293° West 413 475 31,900  Descending Albuquerque Center
Fri 07:22:54 PM 34.0528 -114.5372 292° West 410 472 32,000 44 Climbing Albuquerque Center
Fri 07:24:10 PM 34.1089 -114.7056 292° West 412 474 32,000 -43 Level Los Angeles Center
Fri 07:25:12 PM 34.1494 -114.8369 290° West 419 482 31,900  Descending Los Angeles Center
Fri 07:26:14 PM 34.1917 -114.9658 292° West 416 479 32,000 48 Climbing Los Angeles Center
Fri 07:27:16 PM 34.2436 -115.1231 292° West 420 483 32,000  Level Los Angeles Center
Fri 07:28:18 PM 34.2847 -115.2511 291° West 413 475 32,000 -48 Level Los Angeles Center
Fri 07:29:20 PM 34.3256 -115.3783 291° West 409 471 31,900 -484 Descending Los Angeles Center
Fri 07:30:22 PM 34.3469 -115.4942 283° West 362 417 31,000 -1,403 Descending Los Angeles Center
Fri 07:31:24 PM 34.2894 -115.5914 234° Southwest 359 413 29,000 -1,984 Descending Los Angeles Center
Fri 07:32:26 PM 34.2592 -115.7267 255° West 345 397 26,900 -1,776 Descending Los Angeles Center
Fri 07:33:29 PM 34.2369 -115.8339 256° West 333 383 25,300 -1,392 Descending Los Angeles Center
Fri 07:34:31 PM 34.2139 -115.9397 255° West 323 372 24,000 -629 Descending Los Angeles Center
Fri 07:35:33 PM 34.1914 -116.0442 255° West 323 372 24,000  Level Los Angeles Center
Fri 07:36:35 PM 34.1689 -116.1472 255° West 318 366 24,000  Level Los Angeles Center
Fri 07:37:37 PM 34.1472 -116.2478 255° West 314 361 24,000  Level Los Angeles Center
Fri 07:38:39 PM 34.1200 -116.3697 255° West 321 369 24,000 -194 Level Los Angeles Center
Fri 07:39:41 PM 34.0964 -116.4756 255° West 328 377 23,600 -726 Descending Los Angeles Center
Fri 07:40:43 PM 34.0731 -116.5828 255° West 331 381 22,500 -1,161 Descending Los Angeles Center
Fri 07:41:45 PM 34.0481 -116.6978 255° West 352 405 21,200 -1,065 Descending Los Angeles Center
Fri 07:42:47 PM 34.0253 -116.7936 254° West 302 348 20,300 -1,056 Descending Los Angeles Center
Fri 07:43:50 PM 34.0003 -116.9106 256° West 300 345 19,000 -1,149 Descending Los Angeles Center
Fri 07:44:21 PM 33.9833 -116.9667 250° West 298 343 18,500 -989 Descending Southern California TRACON
Fri 07:45:21 PM 33.9667 -117.0667 259° West 305 351 17,500 -1,100 Descending Southern California TRACON
Fri 07:46:21 PM 33.9500 -117.1667 259° West 296 341 16,300 -1,238 Descending Southern California TRACON
Fri 07:47:27 PM 33.9333 -117.2667 259° West 290 334 14,900 -1,095 Descending Southern California TRACON
Fri 07:48:27 PM 33.9333 -117.3667 270° West 284 327 14,000 -470 Descending Southern California TRACON
Fri 07:49:22 PM 33.9500 -117.4500 284° West 279 321 14,000 -397 Level Southern California TRACON
Fri 07:50:28 PM 33.9833 -117.5333 296° West 279 321 13,200 -1,429 Descending Southern California TRACON
Fri 07:51:28 PM 34.0167 -117.6333 292° West 337 388 11,000 -1,700 Descending Southern California TRACON
Fri 07:52:28 PM 34.0000 -117.7167 256° West 264 304 9,800 -1,100 Descending Southern California TRACON
Fri 07:53:28 PM 34.0000 -117.8000 270° West 269 310 8,800 -942 Descending Southern California TRACON
Fri 07:54:29 PM 33.9833 -117.8833 256° West 223 257 7,900 -843 Descending Southern California TRACON
Fri 07:55:29 PM 33.9833 -117.9500 270° West 220 253 7,100 -900 Descending Southern California TRACON
Fri 07:56:29 PM 33.9667 -118.0333 256° West 217 250 6,100 -1,200 Descending Southern California TRACON
Fri 07:57:29 PM 33.9667 -118.1000 270° West 219 252 4,700 -1,200 Descending Southern California TRACON
Fri 07:58:19 PM 33.9614 -118.1517 263° West 217 250 3,900 -1,071 Descending Los Angeles Center
Fri 07:59:21 PM 33.9542 -118.2294 264° West 203 234 2,700 -1,065 Descending Los Angeles Center
Fri 08:00:23 PM 33.9475 -118.2867 262° West 187 215 1,700 -871 Descending Los Angeles Center
Fri 08:01:25 PM 33.9436 -118.3342 264° West 164 189 900 -677 Descending Los Angeles Center
Fri 08:02:27 PM 33.9386 -118.3803 263° West 149 171 300 -581 Descending Los Angeles Center
Fri 08:04:00 PM 33.9333 -118.4000 270° West  Level FlightAware Approximate
Fri 08:11:00 PM 33.9425 -118.4081 270° West  Level Estimated

Login

Don't have an account? Register now (free) for customized features, flight alerts, and more!